Portada
METAR-TAF:

METAR-TAF

Aeroports :

Campeche, Mèxic

latitud: 19-51N, longitud: 090-33W, altitud: 5 m

Observació

L'informe es va fer fa 41 minuts, a les 14:49 UTC
Vent 10 kt del Sud/Sud-Est
Temperatura 33°C
Humitat 56%
Pressió 1008 hPa
Visibilitat: 11.3 km
Núvols disperses a una alçada de 14000 ft

METAR: MMCP 251449Z 15010KT 7SM SCT140 33/23 A2976 RMK SLP065 52008 973 8/080 HZY

Hora: 10:30 (15:30 UTC)

Pronòstic

L'informe es va fer fa 10 hores i 58 minuts, a les 04:32 UTC
Pronòstic vàlid del 25 a les 06 UTC al 26 a les 06 UTC
Vent 5 kt del Nord/Nord-Oest
Visibilitat: 10 km
Cel clar
A partir de les 25 a les 1800 UTC
Vent 15 kt del Nord-Oest
Visibilitat: 10 km
Núvols disperses a una alçada de 2000 ft
A partir de les 26 a les 0200 UTC
Vent 5 kt del Nord
Visibilitat: 10 km
Núvols disperses a una alçada de 2000 ft

TAF: MMCP 250432Z 2506/2606 34005KT P6SM SKC FM251800 32015KT P6SM SCT020 FM260200 35005KT P6SM SCT020

Observacions i pronòstics meteorològics de més de 4000 aeroports (METAR i TAF).

Les estacions disponibles són els punts grocs i vermells al mapa.

Posi el ratolí al punt desitjat per veure el nom de l'estació.

Feu clic per veure les observacions i els pronòstics meteorològics.

Per canviar el mapa: feu clic els botons verds amb una creu de color negre per apropar; al botó verd amb un guió per allunyar la imatge; o en les fletxes verdes per a mapes adjacents.


METAR-TAF: